Brooklyn, Alabama
Current Conditions -  °F | °C
As of 6:53 PM on Saturday 22 Nov 2014 (Local Time) from KGZH Reporting Station
Light Rain Light Rain  
Wind Chill: 59°   Ceiling: 900
Heat Index: 59°   Visibility: 6mi
Dew Point: 57°   Wind: 7mph
Humidity: 93%   Direction: 80°E
Pressure: 30.13"   Gusts: NA
Location:  31.26°N, 86.77°W
Report Text: KGZH 230053Z AUTO 08006KT 6SM -RA BR BKN009 OVC013 15/14 A3013 RMK AO2 RAE07B48 CIG 006V011 SLP200 P0001 T01500139
Loading
Personal Weather Stations






























Interactive Weather Map New forecast layout! Learn more

10-Day Weather Forecast

Advertisements
Track Severe Weather on mobile